MWCR

Details ICAO MWCR (GCM)
Name Owen Roberts Intl
Region Cayman Islands
Timezone America/Cayman (UTC-5.0)
Plans Departing 288
Arriving 313
Stats Elevation 6 ft / 2 m (AMSL)
Location 19.292800° -81.357800°
Runways 1
Magnetic Variation 5.114° W
Sunrise 2018-12-18 11:54:20 UTC / 2018-12-18 06:54:20 Local
Sunset 2018-12-18 22:52:26 UTC / 2018-12-18 17:52:26 Local
Advertisement - Login to hide

Runways

ID Width Length Bearing (true/mag) Surface Threshold Overrun Markings Lighting
08 148 ft / 45 m 7,026 ft / 2,141 m 75.86° / 80.97° CONCRETE 0 ft / 0 m 0 ft / 0 m APP EDGE THRESHOLD ODALS REIL-OMNI
26 148 ft / 45 m 7,026 ft / 2,141 m 255.86° / 260.98° CONCRETE 423 ft / 129 m 0 ft / 0 m APP EDGE THRESHOLD REIL-OMNI

Map

Weather


0- 5 10 15 20 25 30 35+ Temperature / °C

Clouds and Precipitation
Forecast for 2018-12-18 12:00 UTC. Updated 2 hours ago

Ground ~20,000 ft ~40,000 ft Winds

METAR

MWCR 181100Z 08004KT 9999 FEW024 24/22 Q1015

TAF

TAF MWCR 180300Z 1800/1824 CNL

Frequencies

Tower 118.00 MHz
Recorded 132.35 MHz ATIS
Approach 120.20 MHz GRAND CAYMAN APP
Ground 121.90 MHz
Warning: Do not use this data for real-world aviation or navigation. No guarantee of current accuracy is given.